createdAt,value
2019-05-02T00:01:51.056Z,2.00
2019-05-02T00:04:20.010Z,2.00
2019-05-02T00:06:46.459Z,2.30
2019-05-02T00:09:13.363Z,2.10
2019-05-02T00:11:40.182Z,2.50
2019-05-02T00:14:06.965Z,2.40
2019-05-02T00:16:34.024Z,2.40
2019-05-02T00:19:00.787Z,2.47
2019-05-02T00:21:27.606Z,2.20
2019-05-02T00:23:54.330Z,2.03
2019-05-02T00:26:24.651Z,2.40
2019-05-02T00:28:49.919Z,2.00
2019-05-02T00:31:16.869Z,1.80
2019-05-02T00:33:43.761Z,1.80
2019-05-02T00:36:10.507Z,2.00
2019-05-02T00:38:38.459Z,2.30
2019-05-02T00:41:05.847Z,2.00
2019-05-02T00:43:34.446Z,2.00
2019-05-02T00:46:01.152Z,2.30
2019-05-02T00:48:27.966Z,2.10
2019-05-02T00:50:54.713Z,2.13
2019-05-02T00:53:21.682Z,1.80
2019-05-02T00:55:48.413Z,1.90
2019-05-02T00:58:15.163Z,2.63
2019-05-02T01:00:42.030Z,2.70
2019-05-02T01:03:10.996Z,2.67
2019-05-02T01:05:38.473Z,2.30
2019-05-02T01:08:05.865Z,2.57
2019-05-02T01:10:32.599Z,2.10
2019-05-02T01:12:59.471Z,2.80
2019-05-02T01:15:26.183Z,2.27
2019-05-02T01:17:52.925Z,2.17
2019-05-02T01:20:22.224Z,2.37
2019-05-02T01:22:52.278Z,2.70
2019-05-02T01:25:17.262Z,2.40
2019-05-02T01:27:44.228Z,2.50
2019-05-02T01:30:11.467Z,2.80
2019-05-02T01:32:38.200Z,2.70
2019-05-02T01:35:05.797Z,2.73
2019-05-02T01:37:32.542Z,2.90
2019-05-02T01:39:59.306Z,2.83
2019-05-02T01:42:39.055Z,2.43
2019-05-02T01:44:54.614Z,2.47
2019-05-02T01:47:21.364Z,2.80
2019-05-02T01:49:52.127Z,2.90
2019-05-02T01:52:18.935Z,2.40
2019-05-02T01:54:46.093Z,2.27
2019-05-02T01:57:13.851Z,2.60
2019-05-02T01:59:40.633Z,2.73
2019-05-02T02:02:07.471Z,2.57
2019-05-02T02:04:34.421Z,2.97
2019-05-02T02:07:01.133Z,2.60
2019-05-02T02:09:27.893Z,2.50
2019-05-02T02:11:54.665Z,2.47
2019-05-02T02:14:21.372Z,2.97
2019-05-02T02:16:48.123Z,2.63
2019-05-02T02:19:14.981Z,2.70
2019-05-02T02:21:42.950Z,2.67
2019-05-02T02:24:09.941Z,2.30
2019-05-02T02:26:36.828Z,2.90
2019-05-02T02:29:07.902Z,2.43
2019-05-02T02:31:32.299Z,2.07
2019-05-02T02:33:59.047Z,2.10
2019-05-02T02:36:31.561Z,2.30
2019-05-02T02:38:54.471Z,2.30
2019-05-02T02:41:21.183Z,2.43
2019-05-02T02:43:47.954Z,2.60
2019-05-02T02:46:14.825Z,2.83
2019-05-02T02:48:42.792Z,3.07
2019-05-02T02:51:09.685Z,3.73
2019-05-02T02:53:36.577Z,3.10
2019-05-02T02:56:06.615Z,3.20
2019-05-02T02:58:44.637Z,3.57
2019-05-02T03:01:02.464Z,3.50
2019-05-02T03:03:30.632Z,3.50
2019-05-02T03:05:58.809Z,3.50
2019-05-02T03:08:26.740Z,3.10
2019-05-02T03:10:53.660Z,6.33
2019-05-02T03:13:21.687Z,5.43
2019-05-02T03:15:49.355Z,4.37
2019-05-02T03:18:16.109Z,18.87
2019-05-02T03:20:42.869Z,14.07
2019-05-02T03:23:15.174Z,6.90
2019-05-02T03:25:49.695Z,3.43
2019-05-02T03:28:17.363Z,3.23
2019-05-02T03:30:37.180Z,3.23
2019-05-02T03:33:10.365Z,4.90
2019-05-02T03:35:42.897Z,4.80
2019-05-02T03:38:01.214Z,4.53
2019-05-02T03:40:32.209Z,3.93
2019-05-02T03:42:57.424Z,3.43
2019-05-02T03:45:24.340Z,3.70
2019-05-02T03:47:51.217Z,4.23
2019-05-02T03:50:31.219Z,5.10
2019-05-02T03:52:46.694Z,5.57
2019-05-02T03:55:13.741Z,3.40
2019-05-02T03:57:42.145Z,4.63
2019-05-02T04:00:13.703Z,5.40
2019-05-02T04:02:38.664Z,6.93
2019-05-02T04:05:05.615Z,5.70
2019-05-02T04:07:39.837Z,4.83
2019-05-02T04:10:03.396Z,5.70
2019-05-02T04:12:32.740Z,4.60
2019-05-02T04:14:58.822Z,4.43
2019-05-02T04:17:29.094Z,5.13
2019-05-02T04:19:55.112Z,5.43
2019-05-02T04:22:22.245Z,4.20
2019-05-02T04:24:54.376Z,3.90
2019-05-02T04:27:18.308Z,4.80
2019-05-02T04:29:45.144Z,20.77
2019-05-02T04:32:14.348Z,14.07
2019-05-02T04:34:40.595Z,9.47
2019-05-02T04:37:07.385Z,12.33
2019-05-02T04:39:34.158Z,11.20
2019-05-02T04:42:05.212Z,7.60
2019-05-02T04:44:43.676Z,7.80
2019-05-02T04:47:02.690Z,7.50
2019-05-02T04:49:31.708Z,7.03
2019-05-02T04:52:01.880Z,7.43
2019-05-02T04:54:31.465Z,6.47
2019-05-02T04:56:55.336Z,7.93
2019-05-02T04:59:23.027Z,6.23
2019-05-02T05:01:57.413Z,7.33
2019-05-02T05:04:18.633Z,8.23
2019-05-02T05:06:54.826Z,8.40
2019-05-02T05:09:15.081Z,11.13
2019-05-02T05:11:42.033Z,7.97
2019-05-02T05:14:10.047Z,7.40
2019-05-02T05:16:37.659Z,9.80
2019-05-02T05:19:07.494Z,7.30
2019-05-02T05:21:34.068Z,6.87
2019-05-02T05:24:01.552Z,6.93
2019-05-02T05:26:28.626Z,8.20
2019-05-02T05:28:55.521Z,10.07
2019-05-02T05:31:23.811Z,8.50
2019-05-02T05:33:50.769Z,8.00
2019-05-02T05:36:19.712Z,10.87
2019-05-02T05:38:47.832Z,9.80
2019-05-02T05:41:17.640Z,13.23
2019-05-02T05:43:44.890Z,15.87
2019-05-02T05:46:13.169Z,13.23
2019-05-02T05:48:40.879Z,13.07
2019-05-02T05:51:11.812Z,11.43
2019-05-02T05:53:37.500Z,11.20
2019-05-02T05:56:04.536Z,11.50
2019-05-02T05:58:31.292Z,13.13
2019-05-02T06:00:58.467Z,17.43
2019-05-02T06:03:25.164Z,13.93
2019-05-02T06:05:51.897Z,10.57
2019-05-02T06:08:19.931Z,10.77
2019-05-02T06:10:46.741Z,14.80
2019-05-02T06:13:13.434Z,20.90
2019-05-02T06:15:40.465Z,20.83
2019-05-02T06:18:07.326Z,17.83
2019-05-02T06:20:34.207Z,16.23
2019-05-02T06:23:01.340Z,16.37
2019-05-02T06:25:34.202Z,12.00
2019-05-02T06:28:00.169Z,8.40
2019-05-02T06:30:27.048Z,8.33
2019-05-02T06:32:54.956Z,7.17
2019-05-02T06:35:22.541Z,6.60
2019-05-02T06:37:50.131Z,5.93
2019-05-02T06:40:17.792Z,6.40
2019-05-02T06:42:44.660Z,6.20
2019-05-02T06:45:11.870Z,5.90
2019-05-02T06:47:41.564Z,5.37
2019-05-02T06:50:07.936Z,5.83
2019-05-02T06:52:34.720Z,7.20
2019-05-02T06:55:01.918Z,7.00
2019-05-02T06:57:28.675Z,7.00
2019-05-02T06:59:56.487Z,6.47
2019-05-02T07:02:23.442Z,4.90
2019-05-02T07:04:54.733Z,4.50
2019-05-02T07:07:18.880Z,3.50
2019-05-02T07:09:45.610Z,3.37
2019-05-02T07:12:14.720Z,2.53
2019-05-02T07:14:41.198Z,2.90
2019-05-02T07:17:08.044Z,3.33
2019-05-02T07:19:34.906Z,6.00
2019-05-02T07:22:04.224Z,10.07
2019-05-02T07:24:31.125Z,6.83
2019-05-02T07:27:01.988Z,4.43
2019-05-02T07:29:27.563Z,5.23
2019-05-02T07:31:54.300Z,4.63
2019-05-02T07:34:21.162Z,6.33
2019-05-02T07:36:47.912Z,9.53
2019-05-02T07:39:14.817Z,5.00
2019-05-02T07:41:41.569Z,4.20
2019-05-02T07:44:08.310Z,4.50
2019-05-02T07:46:35.177Z,4.60
2019-05-02T07:49:01.912Z,5.33
2019-05-02T07:51:28.658Z,5.00
2019-05-02T07:53:56.016Z,5.30
2019-05-02T07:56:22.822Z,4.47
2019-05-02T07:58:49.560Z,4.10
2019-05-02T08:01:16.410Z,5.17
2019-05-02T08:03:43.143Z,4.80
2019-05-02T08:06:09.879Z,4.87
2019-05-02T08:08:36.660Z,4.97
2019-05-02T08:11:03.793Z,5.20
2019-05-02T08:13:31.563Z,5.50
2019-05-02T08:15:58.293Z,5.33
2019-05-02T08:18:29.810Z,7.20
2019-05-02T08:20:55.984Z,4.93
2019-05-02T08:23:26.106Z,5.10
2019-05-02T08:25:50.720Z,4.80
2019-05-02T08:28:17.910Z,4.80
2019-05-02T08:30:44.751Z,5.20
2019-05-02T08:33:11.516Z,5.30
2019-05-02T08:35:38.272Z,6.40
2019-05-02T08:38:05.023Z,5.43
2019-05-02T08:40:31.883Z,5.20
2019-05-02T08:42:58.635Z,5.30
2019-05-02T08:45:25.372Z,5.03
2019-05-02T08:47:52.279Z,4.93
2019-05-02T08:50:19.031Z,5.13
2019-05-02T08:52:48.042Z,4.77
2019-05-02T08:55:14.522Z,4.43
2019-05-02T08:57:41.266Z,4.57
2019-05-02T09:00:10.907Z,4.20
2019-05-02T09:02:41.759Z,3.60
2019-05-02T09:05:06.579Z,4.20
2019-05-02T09:07:36.994Z,4.40
2019-05-02T09:10:05.846Z,4.37
2019-05-02T09:12:36.955Z,3.90
2019-05-02T09:15:02.718Z,3.60
2019-05-02T09:17:37.693Z,3.73
2019-05-02T09:20:02.454Z,3.83
2019-05-02T09:22:26.851Z,2.90
2019-05-02T09:24:53.621Z,3.30
2019-05-02T09:27:22.294Z,5.27
2019-05-02T09:29:49.169Z,3.33
2019-05-02T09:32:17.086Z,3.20
2019-05-02T09:34:44.467Z,2.93
2019-05-02T09:37:12.093Z,2.87
2019-05-02T09:39:38.874Z,3.20
2019-05-02T09:42:06.726Z,3.00
2019-05-02T09:44:34.197Z,3.40
2019-05-02T09:47:02.335Z,3.13
2019-05-02T09:49:29.353Z,4.40
2019-05-02T09:51:59.472Z,3.33
2019-05-02T09:54:24.595Z,3.13
2019-05-02T09:56:52.374Z,3.20
2019-05-02T09:59:27.706Z,3.30
2019-05-02T10:01:47.960Z,3.40
2019-05-02T10:04:14.857Z,3.00
2019-05-02T10:06:42.916Z,3.17
2019-05-02T10:09:11.932Z,3.37
2019-05-02T10:11:38.623Z,2.40
2019-05-02T10:14:05.573Z,2.23
2019-05-02T10:16:32.397Z,2.67
2019-05-02T10:19:00.326Z,2.50
2019-05-02T10:21:27.822Z,2.63
2019-05-02T10:23:59.430Z,2.37
2019-05-02T10:26:24.573Z,2.23
2019-05-02T10:28:53.389Z,2.37
2019-05-02T10:31:21.839Z,2.27
2019-05-02T10:33:48.679Z,2.40
2019-05-02T10:36:19.631Z,2.33
2019-05-02T10:38:44.063Z,2.33
2019-05-02T10:41:11.979Z,2.33
2019-05-02T10:43:38.824Z,2.20
2019-05-02T10:46:05.817Z,2.33
2019-05-02T10:48:33.176Z,2.40
2019-05-02T10:51:01.685Z,2.77
2019-05-02T10:53:28.709Z,2.33
2019-05-02T10:55:55.428Z,2.20
2019-05-02T10:58:25.836Z,1.90
2019-05-02T11:00:52.308Z,2.07
2019-05-02T11:03:19.547Z,2.13
2019-05-02T11:05:46.239Z,2.07
2019-05-02T11:08:13.006Z,1.97
2019-05-02T11:10:39.724Z,1.93
2019-05-02T11:13:06.639Z,2.10
2019-05-02T11:15:33.598Z,2.17
2019-05-02T11:18:02.173Z,2.10
2019-05-02T11:20:28.954Z,2.10
2019-05-02T11:22:55.821Z,2.30
2019-05-02T11:25:22.770Z,2.00
2019-05-02T11:27:49.974Z,1.90
2019-05-02T11:30:21.502Z,2.23
2019-05-02T11:32:45.532Z,2.40
2019-05-02T11:35:12.320Z,2.30
2019-05-02T11:37:39.029Z,2.13
2019-05-02T11:40:08.435Z,2.67
2019-05-02T11:42:35.682Z,2.27
2019-05-02T11:45:05.570Z,2.83
2019-05-02T11:47:32.894Z,2.20
2019-05-02T11:49:59.723Z,2.17
2019-05-02T11:52:27.584Z,2.50
2019-05-02T11:54:55.060Z,2.30
2019-05-02T11:57:28.671Z,2.80
2019-05-02T11:59:52.107Z,2.07
2019-05-02T12:02:19.137Z,2.20
2019-05-02T12:04:47.233Z,2.50
2019-05-02T12:07:14.410Z,2.93
2019-05-02T12:09:44.280Z,2.37
2019-05-02T12:12:09.715Z,2.70
2019-05-02T12:14:36.617Z,2.30
2019-05-02T12:17:03.465Z,2.50
2019-05-02T12:19:32.139Z,2.77
2019-05-02T12:21:58.868Z,2.73
2019-05-02T12:24:25.597Z,2.20
2019-05-02T12:26:52.902Z,3.80
2019-05-02T12:29:21.727Z,3.20
2019-05-02T12:31:54.761Z,2.60
2019-05-02T12:34:16.949Z,3.07
2019-05-02T12:36:43.673Z,3.00
2019-05-02T12:39:12.484Z,2.63
2019-05-02T12:41:39.040Z,2.93
2019-05-02T12:44:06.496Z,2.70
2019-05-02T12:46:33.206Z,2.83
2019-05-02T12:48:59.982Z,2.57
2019-05-02T12:51:26.714Z,2.60
2019-05-02T12:53:53.541Z,3.10
2019-05-02T12:56:20.280Z,2.47
2019-05-02T12:58:47.037Z,2.70
2019-05-02T13:01:13.932Z,3.10
2019-05-02T13:03:40.666Z,2.37
2019-05-02T13:06:07.526Z,2.87
2019-05-02T13:08:34.388Z,3.33
2019-05-02T13:11:02.169Z,2.63
2019-05-02T13:13:29.695Z,2.47
2019-05-02T13:15:56.563Z,2.90
2019-05-02T13:18:26.889Z,2.73
2019-05-02T13:20:52.816Z,2.90
2019-05-02T13:23:19.797Z,2.80
2019-05-02T13:25:46.521Z,2.70
2019-05-02T13:28:17.018Z,2.90
2019-05-02T13:30:46.564Z,2.77
2019-05-02T13:33:12.752Z,3.13
2019-05-02T13:35:39.884Z,2.70
2019-05-02T13:38:07.124Z,3.00
2019-05-02T13:40:38.146Z,3.80
2019-05-02T13:43:05.034Z,2.97
2019-05-02T13:45:32.422Z,3.10
2019-05-02T13:48:00.353Z,2.90
2019-05-02T13:50:27.078Z,2.73
2019-05-02T13:52:57.843Z,3.23
2019-05-02T13:55:23.678Z,2.83
2019-05-02T13:57:52.827Z,2.87
2019-05-02T14:00:19.353Z,3.20
2019-05-02T14:02:46.096Z,3.03
2019-05-02T14:05:15.081Z,2.90
2019-05-02T14:07:42.875Z,2.90
2019-05-02T14:10:11.956Z,2.77
2019-05-02T14:12:38.898Z,3.00
2019-05-02T14:15:06.006Z,3.20
2019-05-02T14:17:32.772Z,2.80
2019-05-02T14:20:10.001Z,2.83
2019-05-02T14:22:28.138Z,2.63
2019-05-02T14:24:55.815Z,2.77
2019-05-02T14:27:22.584Z,3.13
2019-05-02T14:29:49.312Z,2.73
2019-05-02T14:32:23.456Z,3.20
2019-05-02T14:34:44.626Z,3.13
2019-05-02T14:37:11.888Z,3.37
2019-05-02T14:39:38.850Z,3.20
2019-05-02T14:42:05.553Z,2.93
2019-05-02T14:45:00.381Z,3.00
2019-05-02T14:47:02.209Z,2.60
2019-05-02T14:49:28.990Z,2.50
2019-05-02T14:51:57.255Z,2.50
2019-05-02T14:54:24.416Z,2.53
2019-05-02T14:56:52.163Z,3.00
2019-05-02T14:59:19.955Z,2.80
2019-05-02T15:01:47.202Z,3.30
2019-05-02T15:04:13.934Z,3.30
2019-05-02T15:06:43.531Z,2.90
2019-05-02T15:09:11.939Z,3.50
2019-05-02T15:11:38.190Z,3.60
2019-05-02T15:14:04.952Z,3.00
2019-05-02T15:16:40.400Z,3.20
2019-05-02T15:19:02.152Z,5.10
2019-05-02T15:21:28.870Z,4.73
2019-05-02T15:23:57.821Z,4.70
2019-05-02T15:26:26.247Z,6.10
2019-05-02T15:28:52.700Z,5.10
2019-05-02T15:31:24.244Z,3.83
2019-05-02T15:33:48.120Z,3.40
2019-05-02T15:36:14.870Z,4.47
2019-05-02T15:38:47.135Z,4.30
2019-05-02T15:41:12.770Z,4.03
2019-05-02T15:43:39.294Z,3.80
2019-05-02T15:46:07.444Z,3.80
2019-05-02T15:48:34.193Z,4.53
2019-05-02T15:51:06.171Z,3.90
2019-05-02T15:53:29.610Z,4.07
2019-05-02T15:55:56.523Z,4.20
2019-05-02T15:58:27.665Z,6.30
2019-05-02T16:00:52.052Z,5.33
2019-05-02T16:03:19.916Z,4.87
2019-05-02T16:05:46.993Z,6.93
2019-05-02T16:08:13.712Z,8.50
2019-05-02T16:10:42.742Z,6.00
2019-05-02T16:13:15.722Z,5.40
2019-05-02T16:15:37.621Z,4.00
2019-05-02T16:18:05.333Z,4.20
2019-05-02T16:20:32.424Z,3.70
2019-05-02T16:23:01.920Z,3.60
2019-05-02T16:25:28.953Z,4.10
2019-05-02T16:28:02.656Z,4.93
2019-05-02T16:30:27.988Z,5.07
2019-05-02T16:32:54.941Z,4.23
2019-05-02T16:35:22.174Z,4.70
2019-05-02T16:37:54.083Z,4.63
2019-05-02T16:40:23.856Z,4.80
2019-05-02T16:42:47.181Z,4.63
2019-05-02T16:45:14.686Z,4.07
2019-05-02T16:47:42.258Z,4.67
2019-05-02T16:50:12.847Z,4.20
2019-05-02T16:52:43.744Z,5.10
2019-05-02T16:55:13.682Z,5.20
2019-05-02T16:57:39.768Z,5.10
2019-05-02T17:00:11.381Z,5.10
2019-05-02T17:02:43.618Z,5.10
2019-05-02T17:05:09.206Z,5.03
2019-05-02T17:07:39.422Z,5.10
2019-05-02T17:10:08.478Z,5.27
2019-05-02T17:12:39.204Z,5.20
2019-05-02T17:15:07.735Z,5.20
2019-05-02T17:17:42.409Z,5.73
2019-05-02T17:20:12.940Z,4.97
2019-05-02T17:22:39.404Z,7.17
2019-05-02T17:25:06.473Z,6.90
2019-05-02T17:27:33.226Z,4.97
2019-05-02T17:30:12.065Z,4.80
2019-05-02T17:32:38.932Z,5.77
2019-05-02T17:35:14.391Z,4.63
2019-05-02T17:37:48.117Z,4.90
2019-05-02T17:40:08.917Z,4.03
2019-05-02T17:42:35.709Z,4.73
2019-05-02T17:45:06.360Z,4.10
2019-05-02T17:47:36.244Z,4.83
2019-05-02T17:50:07.263Z,4.37
2019-05-02T17:52:34.976Z,3.53
2019-05-02T17:55:03.159Z,3.07
2019-05-02T17:57:33.452Z,3.00
2019-05-02T17:59:58.686Z,3.03
2019-05-02T18:02:25.401Z,3.37
2019-05-02T18:04:55.847Z,2.53
2019-05-02T18:07:25.285Z,2.40
2019-05-02T18:09:52.005Z,2.83
2019-05-02T18:12:18.590Z,2.53
2019-05-02T18:14:45.469Z,2.17
2019-05-02T18:17:12.726Z,2.87
2019-05-02T18:19:39.724Z,1.77
2019-05-02T18:22:07.143Z,1.80
2019-05-02T18:24:37.369Z,2.13
2019-05-02T18:27:03.765Z,1.70
2019-05-02T18:29:30.485Z,1.93
2019-05-02T18:31:57.207Z,1.80
2019-05-02T18:34:25.252Z,2.30
2019-05-02T18:36:52.449Z,2.03
2019-05-02T18:39:19.301Z,2.00
2019-05-02T18:41:46.457Z,1.70
2019-05-02T18:44:17.070Z,2.00
2019-05-02T18:46:42.879Z,2.70
2019-05-02T18:49:09.724Z,3.00
2019-05-02T18:51:36.568Z,2.50
2019-05-02T18:54:07.500Z,2.27
2019-05-02T18:56:35.587Z,2.70
2019-05-02T18:59:02.634Z,2.40
2019-05-02T19:01:29.560Z,2.50
2019-05-02T19:03:56.428Z,3.10
2019-05-02T19:06:23.138Z,2.67
2019-05-02T19:08:55.374Z,3.20
2019-05-02T19:11:22.254Z,3.40
2019-05-02T19:13:52.506Z,3.80
2019-05-02T19:16:24.299Z,3.60
2019-05-02T19:18:57.257Z,3.20
2019-05-02T19:21:26.371Z,3.77
2019-05-02T19:23:51.802Z,4.40
2019-05-02T19:26:18.762Z,4.10
2019-05-02T19:28:45.881Z,4.60
2019-05-02T19:31:12.670Z,4.27
2019-05-02T19:33:50.145Z,4.93
2019-05-02T19:36:24.404Z,4.97
2019-05-02T19:38:45.560Z,5.17
2019-05-02T19:41:12.303Z,6.03
2019-05-02T19:43:45.735Z,5.83
2019-05-02T19:46:07.750Z,5.80
2019-05-02T19:48:36.890Z,6.23
2019-05-02T19:51:03.660Z,6.00
2019-05-02T19:53:32.282Z,6.07
2019-05-02T19:56:01.494Z,6.40
2019-05-02T19:58:28.785Z,7.10
2019-05-02T20:00:55.815Z,6.57
2019-05-02T20:03:25.964Z,6.70
2019-05-02T20:05:51.912Z,6.93
2019-05-02T20:08:21.450Z,7.13
2019-05-02T20:10:52.426Z,6.97
2019-05-02T20:13:20.274Z,7.10
2019-05-02T20:15:44.757Z,7.13
2019-05-02T20:18:11.967Z,7.30
2019-05-02T20:20:46.288Z,7.40
2019-05-02T20:23:16.225Z,7.27
2019-05-02T20:25:42.612Z,6.67
2019-05-02T20:28:09.778Z,8.17
2019-05-02T20:30:36.618Z,8.40
2019-05-02T20:33:05.244Z,8.23
2019-05-02T20:35:32.010Z,8.43
2019-05-02T20:37:59.008Z,7.93
2019-05-02T20:40:32.134Z,7.90
2019-05-02T20:42:59.400Z,8.47
2019-05-02T20:45:26.624Z,8.60
2019-05-02T20:47:53.335Z,8.97
2019-05-02T20:50:20.080Z,8.63
2019-05-02T20:52:46.875Z,8.23
2019-05-02T20:55:13.576Z,8.70
2019-05-02T20:57:42.033Z,8.90
2019-05-02T21:00:23.614Z,9.07
2019-05-02T21:02:51.890Z,8.63
2019-05-02T21:05:21.618Z,9.47
2019-05-02T21:07:48.348Z,9.53
2019-05-02T21:10:15.409Z,9.33
2019-05-02T21:12:42.451Z,9.87
2019-05-02T21:15:09.167Z,9.70
2019-05-02T21:17:36.065Z,9.27
2019-05-02T21:20:05.191Z,9.07
2019-05-02T21:22:32.835Z,9.67
2019-05-02T21:24:59.558Z,9.17
2019-05-02T21:27:26.324Z,9.57
2019-05-02T21:29:53.195Z,9.60
2019-05-02T21:32:19.910Z,9.27
2019-05-02T21:34:46.656Z,9.30
2019-05-02T21:37:14.081Z,9.80
2019-05-02T21:39:42.487Z,10.33
2019-05-02T21:42:09.414Z,10.10
2019-05-02T21:44:36.167Z,10.37
2019-05-02T21:47:05.749Z,10.63
2019-05-02T21:49:32.117Z,10.53
2019-05-02T21:51:58.913Z,10.87
2019-05-02T21:54:25.693Z,10.57
2019-05-02T21:56:52.447Z,10.50
2019-05-02T21:59:19.194Z,10.27
2019-05-02T22:01:47.583Z,10.67
2019-05-02T22:04:14.330Z,11.03
2019-05-02T22:06:42.713Z,11.13
2019-05-02T22:09:09.784Z,11.23
2019-05-02T22:11:37.034Z,10.73
2019-05-02T22:14:04.814Z,9.77
2019-05-02T22:16:32.670Z,10.10
2019-05-02T22:18:59.714Z,10.97
2019-05-02T22:21:26.457Z,10.23
2019-05-02T22:23:53.210Z,10.97
2019-05-02T22:26:21.996Z,10.40
2019-05-02T22:28:48.512Z,10.87
2019-05-02T22:31:15.384Z,11.30
2019-05-02T22:33:44.564Z,11.23
2019-05-02T22:36:12.333Z,11.30
2019-05-02T22:38:39.272Z,11.27
2019-05-02T22:41:06.007Z,10.77
2019-05-02T22:43:32.787Z,10.43
2019-05-02T22:45:59.637Z,10.20
2019-05-02T22:48:26.382Z,10.33
2019-05-02T22:50:53.091Z,10.37
2019-05-02T22:53:21.599Z,10.97
2019-05-02T22:55:48.324Z,10.63
2019-05-02T22:58:15.046Z,9.43
2019-05-02T23:00:41.832Z,10.50
2019-05-02T23:03:08.570Z,10.87
2019-05-02T23:05:35.451Z,10.77
2019-05-02T23:08:02.373Z,10.27
2019-05-02T23:10:29.124Z,10.70
2019-05-02T23:12:56.014Z,8.13
2019-05-02T23:15:22.723Z,9.43
2019-05-02T23:17:49.472Z,6.80
2019-05-02T23:20:16.390Z,6.27
2019-05-02T23:22:43.117Z,6.00
2019-05-02T23:25:12.005Z,5.57
2019-05-02T23:27:39.891Z,5.37
2019-05-02T23:30:09.413Z,5.43
2019-05-02T23:32:36.293Z,5.30
2019-05-02T23:35:07.310Z,5.33
2019-05-02T23:37:33.448Z,5.63
2019-05-02T23:40:02.033Z,4.73
2019-05-02T23:42:28.862Z,5.27
2019-05-02T23:44:55.622Z,5.00
2019-05-02T23:47:22.576Z,3.50
2019-05-02T23:49:49.267Z,3.27
2019-05-02T23:52:15.980Z,3.90
2019-05-02T23:54:49.926Z,4.07
2019-05-02T23:57:12.136Z,3.50
2019-05-02T23:59:39.055Z,3.33
